sensor_id;sensor_type;location;lat;lon;timestamp;pressure;altitude;pressure_sealevel;temperature;humidity
54900;BME280;40801;41.924;25.562;2023-04-08T00:00:33;99795.03;;;8.70;66.55
54900;BME280;40801;41.924;25.562;2023-04-08T00:03:00;99791.25;;;8.66;68.04
54900;BME280;40801;41.924;25.562;2023-04-08T00:05:26;99789.13;;;8.63;67.42
54900;BME280;40801;41.924;25.562;2023-04-08T00:07:51;99785.09;;;8.65;67.19
54900;BME280;40801;41.924;25.562;2023-04-08T00:10:17;99773.63;;;8.55;67.63
54900;BME280;40801;41.924;25.562;2023-04-08T00:12:43;99785.56;;;8.44;67.88
54900;BME280;40801;41.924;25.562;2023-04-08T00:15:09;99782.06;;;8.43;68.73
54900;BME280;40801;41.924;25.562;2023-04-08T00:17:34;99785.28;;;8.45;68.56
54900;BME280;40801;41.924;25.562;2023-04-08T00:20:00;99791.50;;;8.35;69.69
54900;BME280;40801;41.924;25.562;2023-04-08T00:22:25;99787.72;;;8.36;70.33
54900;BME280;40801;41.924;25.562;2023-04-08T00:24:50;99783.16;;;8.32;69.93
54900;BME280;40801;41.924;25.562;2023-04-08T00:27:16;99783.72;;;8.29;70.44
54900;BME280;40801;41.924;25.562;2023-04-08T00:29:42;99778.69;;;8.22;71.33
54900;BME280;40801;41.924;25.562;2023-04-08T00:32:07;99788.59;;;8.27;71.17
54900;BME280;40801;41.924;25.562;2023-04-08T00:34:32;99786.97;;;8.26;71.43
54900;BME280;40801;41.924;25.562;2023-04-08T00:36:58;99795.84;;;8.26;72.13
54900;BME280;40801;41.924;25.562;2023-04-08T00:39:23;99790.19;;;8.28;72.19
54900;BME280;40801;41.924;25.562;2023-04-08T00:41:49;99797.16;;;8.29;72.12
54900;BME280;40801;41.924;25.562;2023-04-08T00:44:15;99805.47;;;8.32;71.94
54900;BME280;40801;41.924;25.562;2023-04-08T00:46:40;99806.91;;;8.20;73.56
54900;BME280;40801;41.924;25.562;2023-04-08T00:49:06;99809.31;;;8.21;73.12
54900;BME280;40801;41.924;25.562;2023-04-08T00:51:32;99805.25;;;8.24;73.31
54900;BME280;40801;41.924;25.562;2023-04-08T00:53:58;99803.09;;;8.26;73.07
54900;BME280;40801;41.924;25.562;2023-04-08T00:56:25;99795.59;;;8.23;73.42
54900;BME280;40801;41.924;25.562;2023-04-08T00:58:51;99804.53;;;8.13;73.95
54900;BME280;40801;41.924;25.562;2023-04-08T01:04:06;99809.94;;;8.03;74.85
54900;BME280;40801;41.924;25.562;2023-04-08T01:06:49;99808.34;;;8.02;74.12
54900;BME280;40801;41.924;25.562;2023-04-08T01:09:20;99807.47;;;8.17;72.95
54900;BME280;40801;41.924;25.562;2023-04-08T01:11:49;99812.03;;;8.16;73.96
54900;BME280;40801;41.924;25.562;2023-04-08T01:14:19;99814.75;;;8.11;74.86
54900;BME280;40801;41.924;25.562;2023-04-08T01:16:46;99824.88;;;8.24;73.47
54900;BME280;40801;41.924;25.562;2023-04-08T01:19:30;99828.19;;;8.11;75.56
54900;BME280;40801;41.924;25.562;2023-04-08T01:22:02;99819.56;;;8.09;75.73
54900;BME280;40801;41.924;25.562;2023-04-08T01:24:33;99818.56;;;8.00;76.20
54900;BME280;40801;41.924;25.562;2023-04-08T01:27:00;99807.50;;;8.06;75.07
54900;BME280;40801;41.924;25.562;2023-04-08T01:29:28;99821.19;;;8.15;74.82
54900;BME280;40801;41.924;25.562;2023-04-08T01:31:55;99814.44;;;8.18;74.10
54900;BME280;40801;41.924;25.562;2023-04-08T01:34:22;99815.59;;;8.01;75.18
54900;BME280;40801;41.924;25.562;2023-04-08T01:36:49;99811.59;;;7.99;75.03
54900;BME280;40801;41.924;25.562;2023-04-08T01:39:16;99817.28;;;7.87;76.73
54900;BME280;40801;41.924;25.562;2023-04-08T01:41:43;99813.47;;;7.98;75.70
54900;BME280;40801;41.924;25.562;2023-04-08T01:44:10;99814.72;;;8.16;74.78
54900;BME280;40801;41.924;25.562;2023-04-08T01:46:38;99813.38;;;8.19;74.04
54900;BME280;40801;41.924;25.562;2023-04-08T01:49:06;99814.44;;;8.18;75.12
54900;BME280;40801;41.924;25.562;2023-04-08T01:51:32;99816.78;;;8.29;74.48
54900;BME280;40801;41.924;25.562;2023-04-08T01:53:58;99814.34;;;8.33;73.91
54900;BME280;40801;41.924;25.562;2023-04-08T01:56:26;99822.19;;;8.24;74.50
54900;BME280;40801;41.924;25.562;2023-04-08T01:58:53;99823.22;;;8.28;74.19
54900;BME280;40801;41.924;25.562;2023-04-08T02:01:22;99836.97;;;8.22;75.30
54900;BME280;40801;41.924;25.562;2023-04-08T02:03:49;99832.75;;;8.11;75.33
54900;BME280;40801;41.924;25.562;2023-04-08T02:06:17;99828.97;;;8.17;74.43
54900;BME280;40801;41.924;25.562;2023-04-08T02:08:42;99834.88;;;8.08;74.88
54900;BME280;40801;41.924;25.562;2023-04-08T02:11:08;99824.94;;;8.14;75.06
54900;BME280;40801;41.924;25.562;2023-04-08T02:13:34;99836.16;;;8.26;74.53
54900;BME280;40801;41.924;25.562;2023-04-08T02:16:21;99834.78;;;8.29;74.58
54900;BME280;40801;41.924;25.562;2023-04-08T02:18:55;99834.53;;;8.25;76.15
54900;BME280;40801;41.924;25.562;2023-04-08T02:21:25;99832.94;;;8.24;76.24
54900;BME280;40801;41.924;25.562;2023-04-08T02:23:52;99832.94;;;8.24;75.95
54900;BME280;40801;41.924;25.562;2023-04-08T02:26:19;99841.75;;;8.30;75.37
54900;BME280;40801;41.924;25.562;2023-04-08T02:28:48;99832.88;;;8.34;75.17
54900;BME280;40801;41.924;25.562;2023-04-08T02:31:15;99839.88;;;8.30;75.95
54900;BME280;40801;41.924;25.562;2023-04-08T02:33:42;99835.03;;;8.32;75.21
54900;BME280;40801;41.924;25.562;2023-04-08T02:36:09;99840.16;;;8.39;75.44
54900;BME280;40801;41.924;25.562;2023-04-08T02:38:35;99833.41;;;8.36;74.40
54900;BME280;40801;41.924;25.562;2023-04-08T02:41:00;99841.47;;;8.36;75.46
54900;BME280;40801;41.924;25.562;2023-04-08T02:43:26;99834.44;;;8.46;74.74
54900;BME280;40801;41.924;25.562;2023-04-08T02:45:59;99838.78;;;8.42;75.02
54900;BME280;40801;41.924;25.562;2023-04-08T02:48:27;99838.25;;;8.40;75.09
54900;BME280;40801;41.924;25.562;2023-04-08T02:50:53;99842.56;;;8.41;75.49
54900;BME280;40801;41.924;25.562;2023-04-08T02:53:18;99842.03;;;8.38;75.12
54900;BME280;40801;41.924;25.562;2023-04-08T02:55:44;99846.56;;;8.43;75.46
54900;BME280;40801;41.924;25.562;2023-04-08T02:58:09;99846.56;;;8.43;75.21
54900;BME280;40801;41.924;25.562;2023-04-08T03:00:34;99844.69;;;8.44;74.95
54900;BME280;40801;41.924;25.562;2023-04-08T03:03:01;99852.50;;;8.35;75.09
54900;BME280;40801;41.924;25.562;2023-04-08T03:05:26;99852.78;;;8.33;75.07
54900;BME280;40801;41.924;25.562;2023-04-08T03:07:52;99851.19;;;8.27;75.58
54900;BME280;40801;41.924;25.562;2023-04-08T03:10:17;99855.00;;;8.16;75.83
54900;BME280;40801;41.924;25.562;2023-04-08T03:12:43;99861.69;;;8.24;75.36
54900;BME280;40801;41.924;25.562;2023-04-08T03:15:08;99864.38;;;8.24;75.42
54900;BME280;40801;41.924;25.562;2023-04-08T03:17:34;99857.63;;;8.26;75.31
54900;BME280;40801;41.924;25.562;2023-04-08T03:20:00;99864.88;;;8.31;75.45
54900;BME280;40801;41.924;25.562;2023-04-08T03:22:28;99860.56;;;8.30;75.46
54900;BME280;40801;41.924;25.562;2023-04-08T03:24:53;99856.00;;;8.41;74.45
54900;BME280;40801;41.924;25.562;2023-04-08T03:27:18;99852.50;;;8.35;75.28
54900;BME280;40801;41.924;25.562;2023-04-08T03:29:44;99860.84;;;8.28;75.98
54900;BME280;40801;41.924;25.562;2023-04-08T03:32:10;99851.47;;;8.26;75.45
54900;BME280;40801;41.924;25.562;2023-04-08T03:34:36;99857.59;;;8.31;75.33
54900;BME280;40801;41.924;25.562;2023-04-08T03:37:01;99862.44;;;8.34;75.36
54900;BME280;40801;41.924;25.562;2023-04-08T03:39:27;99868.34;;;8.36;74.56
54900;BME280;40801;41.924;25.562;2023-04-08T03:41:52;99875.06;;;8.39;74.67
54900;BME280;40801;41.924;25.562;2023-04-08T03:44:18;99874.53;;;8.42;74.79
54900;BME280;40801;41.924;25.562;2023-04-08T03:46:43;99879.09;;;8.42;74.67
54900;BME280;40801;41.924;25.562;2023-04-08T03:49:09;99877.22;;;8.37;75.55
54900;BME280;40801;41.924;25.562;2023-04-08T03:51:34;99880.47;;;8.34;75.32
54900;BME280;40801;41.924;25.562;2023-04-08T03:54:00;99881.25;;;8.34;75.43
54900;BME280;40801;41.924;25.562;2023-04-08T03:56:25;99875.06;;;8.39;74.73
54900;BME280;40801;41.924;25.562;2023-04-08T03:58:50;99872.13;;;8.41;74.78
54900;BME280;40801;41.924;25.562;2023-04-08T04:01:16;99880.97;;;8.41;74.06
54900;BME280;40801;41.924;25.562;2023-04-08T04:03:41;99881.47;;;8.48;73.85
54900;BME280;40801;41.924;25.562;2023-04-08T04:06:07;99877.41;;;8.51;74.10
54900;BME280;40801;41.924;25.562;2023-04-08T04:08:32;99878.22;;;8.51;73.91
54900;BME280;40801;41.924;25.562;2023-04-08T04:10:58;99888.72;;;8.48;74.42
54900;BME280;40801;41.924;25.562;2023-04-08T04:13:24;99882.50;;;8.52;74.10
54900;BME280;40801;41.924;25.562;2023-04-08T04:15:49;99879.06;;;8.47;73.68
54900;BME280;40801;41.924;25.562;2023-04-08T04:18:15;99879.59;;;8.49;73.65
54900;BME280;40801;41.924;25.562;2023-04-08T04:20:41;99882.25;;;8.49;74.04
54900;BME280;40801;41.924;25.562;2023-04-08T04:23:07;99873.88;;;8.55;73.52
54900;BME280;40801;41.924;25.562;2023-04-08T04:25:33;99870.06;;;8.61;73.32
54900;BME280;40801;41.924;25.562;2023-04-08T04:27:58;99877.63;;;8.59;73.46
54900;BME280;40801;41.924;25.562;2023-04-08T04:30:23;99885.44;;;8.56;73.79
54900;BME280;40801;41.924;25.562;2023-04-08T04:32:49;99886.72;;;8.68;73.25
54900;BME280;40801;41.924;25.562;2023-04-08T04:35:14;99891.53;;;8.72;73.10
54900;BME280;40801;41.924;25.562;2023-04-08T04:37:40;99894.47;;;8.75;72.67
54900;BME280;40801;41.924;25.562;2023-04-08T04:40:06;99899.75;;;8.85;72.24
54900;BME280;40801;41.924;25.562;2023-04-08T04:42:31;99901.09;;;8.88;71.85
54900;BME280;40801;41.924;25.562;2023-04-08T04:44:57;99906.69;;;8.91;71.64
54900;BME280;40801;41.924;25.562;2023-04-08T04:47:23;99908.91;;;8.84;71.54
54900;BME280;40801;41.924;25.562;2023-04-08T04:49:49;99908.75;;;8.65;72.51
54900;BME280;40801;41.924;25.562;2023-04-08T04:52:15;99912.44;;;8.80;71.28
54900;BME280;40801;41.924;25.562;2023-04-08T04:54:41;99908.88;;;8.89;70.52
54900;BME280;40801;41.924;25.562;2023-04-08T04:57:06;99915.72;;;8.72;71.19
54900;BME280;40801;41.924;25.562;2023-04-08T04:59:32;99908.38;;;8.82;70.95
54900;BME280;40801;41.924;25.562;2023-04-08T05:01:57;99924.72;;;8.91;70.79
54900;BME280;40801;41.924;25.562;2023-04-08T05:04:23;99926.56;;;9.00;70.67
54900;BME280;40801;41.924;25.562;2023-04-08T05:06:49;99925.19;;;9.03;70.10
54900;BME280;40801;41.924;25.562;2023-04-08T05:09:14;99929.38;;;9.14;69.98
54900;BME280;40801;41.924;25.562;2023-04-08T05:11:40;99920.72;;;9.22;69.56
54900;BME280;40801;41.924;25.562;2023-04-08T05:14:05;99909.19;;;9.17;69.40
54900;BME280;40801;41.924;25.562;2023-04-08T05:16:32;99918.47;;;9.35;68.75
54900;BME280;40801;41.924;25.562;2023-04-08T05:18:57;99913.59;;;9.37;68.39
54900;BME280;40801;41.924;25.562;2023-04-08T05:21:23;99902.09;;;9.31;69.24
54900;BME280;40801;41.924;25.562;2023-04-08T05:23:48;99898.72;;;9.44;68.95
54900;BME280;40801;41.924;25.562;2023-04-08T05:26:19;99886.56;;;9.47;69.67
54900;BME280;40801;41.924;25.562;2023-04-08T05:28:48;99903.66;;;9.61;69.38
54900;BME280;40801;41.924;25.562;2023-04-08T05:31:20;99907.28;;;9.75;68.80
54900;BME280;40801;41.924;25.562;2023-04-08T05:33:46;99891.63;;;9.77;68.23
54900;BME280;40801;41.924;25.562;2023-04-08T05:36:13;99904.19;;;9.87;68.37
54900;BME280;40801;41.924;25.562;2023-04-08T05:38:39;99912.31;;;9.82;68.81
54900;BME280;40801;41.924;25.562;2023-04-08T05:41:05;99907.00;;;10.01;67.68
54900;BME280;40801;41.924;25.562;2023-04-08T05:43:33;99910.84;;;9.94;67.73
54900;BME280;40801;41.924;25.562;2023-04-08T05:45:59;99909.31;;;9.88;68.19
54900;BME280;40801;41.924;25.562;2023-04-08T05:48:25;99918.41;;;9.92;68.28
54900;BME280;40801;41.924;25.562;2023-04-08T05:50:50;99919.50;;;9.91;68.39
54900;BME280;40801;41.924;25.562;2023-04-08T05:53:16;99914.56;;;9.99;68.52
54900;BME280;40801;41.924;25.562;2023-04-08T05:55:41;99919.03;;;10.08;68.93
54900;BME280;40801;41.924;25.562;2023-04-08T05:58:07;99912.44;;;10.19;68.13
54900;BME280;40801;41.924;25.562;2023-04-08T06:00:32;99921.19;;;10.06;68.46
54900;BME280;40801;41.924;25.562;2023-04-08T06:02:58;99918.69;;;10.15;68.21
54900;BME280;40801;41.924;25.562;2023-04-08T06:05:23;99919.38;;;10.26;68.30
54900;BME280;40801;41.924;25.562;2023-04-08T06:07:49;99924.66;;;10.54;67.87
54900;BME280;40801;41.924;25.562;2023-04-08T06:10:14;99917.69;;;10.72;66.87
54900;BME280;40801;41.924;25.562;2023-04-08T06:12:41;99930.59;;;10.75;66.88
54900;BME280;40801;41.924;25.562;2023-04-08T06:15:07;99928.44;;;10.91;66.95
54900;BME280;40801;41.924;25.562;2023-04-08T06:17:37;99934.16;;;11.22;66.05
54900;BME280;40801;41.924;25.562;2023-04-08T06:20:04;99929.91;;;11.35;65.42
54900;BME280;40801;41.924;25.562;2023-04-08T06:22:30;99926.75;;;11.14;66.24
54900;BME280;40801;41.924;25.562;2023-04-08T06:24:55;99933.31;;;11.40;65.47
54900;BME280;40801;41.924;25.562;2023-04-08T06:27:21;99929.06;;;11.67;64.26
54900;BME280;40801;41.924;25.562;2023-04-08T06:29:46;99934.06;;;11.73;64.37
54900;BME280;40801;41.924;25.562;2023-04-08T06:32:12;99928.88;;;11.77;64.39
54900;BME280;40801;41.924;25.562;2023-04-08T06:34:38;99929.72;;;12.05;63.63
54900;BME280;40801;41.924;25.562;2023-04-08T06:37:05;99925.13;;;12.19;63.16
54900;BME280;40801;41.924;25.562;2023-04-08T06:39:31;99927.91;;;12.28;62.35
54900;BME280;40801;41.924;25.562;2023-04-08T06:41:56;99932.81;;;12.26;62.30
54900;BME280;40801;41.924;25.562;2023-04-08T06:44:22;99924.72;;;12.26;63.01
54900;BME280;40801;41.924;25.562;2023-04-08T06:46:48;99925.78;;;12.52;62.18
54900;BME280;40801;41.924;25.562;2023-04-08T06:49:13;99922.09;;;12.70;60.97
54900;BME280;40801;41.924;25.562;2023-04-08T06:51:38;99928.03;;;12.73;61.32
54900;BME280;40801;41.924;25.562;2023-04-08T06:54:04;99923.47;;;12.82;61.21
54900;BME280;40801;41.924;25.562;2023-04-08T06:56:29;99927.84;;;12.91;60.90
54900;BME280;40801;41.924;25.562;2023-04-08T06:58:55;99930.63;;;13.00;61.15
54900;BME280;40801;41.924;25.562;2023-04-08T07:01:20;99929.81;;;12.99;60.98
54900;BME280;40801;41.924;25.562;2023-04-08T07:03:46;99924.25;;;13.18;60.47
54900;BME280;40801;41.924;25.562;2023-04-08T07:06:12;99935.03;;;13.32;59.68
54900;BME280;40801;41.924;25.562;2023-04-08T07:08:37;99938.91;;;13.40;59.00
54900;BME280;40801;41.924;25.562;2023-04-08T07:11:03;99945.91;;;13.41;58.92
54900;BME280;40801;41.924;25.562;2023-04-08T07:13:29;99948.28;;;13.64;58.93
54900;BME280;40801;41.924;25.562;2023-04-08T07:15:54;99949.97;;;13.83;58.32
54900;BME280;40801;41.924;25.562;2023-04-08T07:18:20;99951.47;;;13.98;57.62
54900;BME280;40801;41.924;25.562;2023-04-08T07:20:52;99949.00;;;13.79;57.44
54900;BME280;40801;41.924;25.562;2023-04-08T07:23:18;99945.75;;;13.99;57.53
54900;BME280;40801;41.924;25.562;2023-04-08T07:25:44;99943.06;;;14.16;57.12
54900;BME280;40801;41.924;25.562;2023-04-08T07:28:10;99941.97;;;14.17;56.76
54900;BME280;40801;41.924;25.562;2023-04-08T07:30:36;99938.41;;;14.48;56.15
54900;BME280;40801;41.924;25.562;2023-04-08T07:33:01;99953.09;;;14.47;55.86
54900;BME280;40801;41.924;25.562;2023-04-08T07:35:27;99943.06;;;14.56;55.87
54900;BME280;40801;41.924;25.562;2023-04-08T07:37:52;99937.34;;;14.75;55.39
54900;BME280;40801;41.924;25.562;2023-04-08T07:40:19;99947.84;;;15.02;54.92
54900;BME280;40801;41.924;25.562;2023-04-08T07:42:45;99934.59;;;15.18;54.57
54900;BME280;40801;41.924;25.562;2023-04-08T07:45:11;99932.78;;;15.48;54.01
54900;BME280;40801;41.924;25.562;2023-04-08T07:47:36;99940.47;;;15.63;53.71
54900;BME280;40801;41.924;25.562;2023-04-08T07:50:02;99943.84;;;15.90;53.00
54900;BME280;40801;41.924;25.562;2023-04-08T07:52:30;99934.09;;;15.97;52.46
54900;BME280;40801;41.924;25.562;2023-04-08T07:54:56;99927.72;;;16.23;52.23
54900;BME280;40801;41.924;25.562;2023-04-08T07:57:21;99930.34;;;16.61;51.60
54900;BME280;40801;41.924;25.562;2023-04-08T07:59:47;99918.25;;;16.79;50.98
54900;BME280;40801;41.924;25.562;2023-04-08T08:02:12;99932.47;;;17.51;49.60
54900;BME280;40801;41.924;25.562;2023-04-08T08:04:37;99927.34;;;18.07;48.89
54900;BME280;40801;41.924;25.562;2023-04-08T08:07:03;99924.25;;;18.57;47.49
54900;BME280;40801;41.924;25.562;2023-04-08T08:09:28;99914.56;;;19.00;45.79
54900;BME280;40801;41.924;25.562;2023-04-08T08:11:54;99922.50;;;19.33;44.69
54900;BME280;40801;41.924;25.562;2023-04-08T08:14:20;99917.34;;;19.15;43.83
54900;BME280;40801;41.924;25.562;2023-04-08T08:16:46;99920.97;;;18.92;43.58
54900;BME280;40801;41.924;25.562;2023-04-08T08:19:12;99912.53;;;18.97;43.26
54900;BME280;40801;41.924;25.562;2023-04-08T08:21:38;99913.94;;;19.18;42.60
54900;BME280;40801;41.924;25.562;2023-04-08T08:24:04;99914.06;;;19.38;42.39
54900;BME280;40801;41.924;25.562;2023-04-08T08:26:30;99910.31;;;19.74;41.51
54900;BME280;40801;41.924;25.562;2023-04-08T08:28:56;99911.69;;;20.31;40.55
54900;BME280;40801;41.924;25.562;2023-04-08T08:31:21;99898.28;;;20.61;40.32
54900;BME280;40801;41.924;25.562;2023-04-08T08:33:46;99900.09;;;20.53;39.16
54900;BME280;40801;41.924;25.562;2023-04-08T08:36:12;99898.16;;;20.92;38.67
54900;BME280;40801;41.924;25.562;2023-04-08T08:38:37;99895.34;;;21.50;37.94
54900;BME280;40801;41.924;25.562;2023-04-08T08:41:03;99889.78;;;21.24;38.36
54900;BME280;40801;41.924;25.562;2023-04-08T08:43:29;99890.31;;;22.02;37.57
54900;BME280;40801;41.924;25.562;2023-04-08T08:45:58;99896.47;;;22.44;36.93
54900;BME280;40801;41.924;25.562;2023-04-08T08:48:23;99886.84;;;22.88;35.58
54900;BME280;40801;41.924;25.562;2023-04-08T08:50:49;99890.19;;;22.74;36.14
54900;BME280;40801;41.924;25.562;2023-04-08T08:53:15;99883.44;;;23.38;35.31
54900;BME280;40801;41.924;25.562;2023-04-08T08:55:40;99880.50;;;24.02;34.41
54900;BME280;40801;41.924;25.562;2023-04-08T08:58:06;99877.00;;;24.08;34.01
54900;BME280;40801;41.924;25.562;2023-04-08T09:00:41;99881.81;;;24.26;32.53
54900;BME280;40801;41.924;25.562;2023-04-08T09:03:19;99879.75;;;24.81;31.28
54900;BME280;40801;41.924;25.562;2023-04-08T09:10:53;99882.09;;;24.76;30.81
54900;BME280;40801;41.924;25.562;2023-04-08T09:13:18;99879.19;;;24.40;31.48
54900;BME280;40801;41.924;25.562;2023-04-08T09:16:00;99879.41;;;24.90;31.19
54900;BME280;40801;41.924;25.562;2023-04-08T09:18:27;99889.81;;;25.43;31.56
54900;BME280;40801;41.924;25.562;2023-04-08T09:20:53;99891.78;;;25.42;30.68
54900;BME280;40801;41.924;25.562;2023-04-08T09:23:18;99888.22;;;25.31;30.08
54900;BME280;40801;41.924;25.562;2023-04-08T09:25:44;99881.59;;;25.78;30.38
54900;BME280;40801;41.924;25.562;2023-04-08T09:28:21;99878.25;;;26.72;28.83
54900;BME280;40801;41.924;25.562;2023-04-08T09:30:46;99876.47;;;25.80;29.75
54900;BME280;40801;41.924;25.562;2023-04-08T09:33:12;99877.19;;;26.20;29.08
54900;BME280;40801;41.924;25.562;2023-04-08T09:35:38;99875.78;;;26.89;27.98
54900;BME280;40801;41.924;25.562;2023-04-08T09:38:03;99875.78;;;26.99;26.92
54900;BME280;40801;41.924;25.562;2023-04-08T09:40:33;99886.88;;;26.92;25.13
54900;BME280;40801;41.924;25.562;2023-04-08T09:43:04;99883.28;;;26.95;25.97
54900;BME280;40801;41.924;25.562;2023-04-08T09:45:32;99875.75;;;27.06;25.25
54900;BME280;40801;41.924;25.562;2023-04-08T09:48:13;99865.50;;;27.59;24.58
54900;BME280;40801;41.924;25.562;2023-04-08T09:50:49;99866.13;;;27.84;24.54
54900;BME280;40801;41.924;25.562;2023-04-08T09:53:19;99868.13;;;28.21;24.02
54900;BME280;40801;41.924;25.562;2023-04-08T09:55:52;99870.66;;;28.08;24.32
54900;BME280;40801;41.924;25.562;2023-04-08T09:58:21;99861.59;;;28.42;24.52
54900;BME280;40801;41.924;25.562;2023-04-08T10:00:53;99865.72;;;28.27;23.95
54900;BME280;40801;41.924;25.562;2023-04-08T10:03:29;99874.88;;;27.24;24.36
54900;BME280;40801;41.924;25.562;2023-04-08T10:06:00;99868.50;;;26.18;25.41
54900;BME280;40801;41.924;25.562;2023-04-08T10:08:25;99865.19;;;24.84;26.73
54900;BME280;40801;41.924;25.562;2023-04-08T10:10:53;99873.88;;;24.17;27.11
54900;BME280;40801;41.924;25.562;2023-04-08T10:13:19;99868.34;;;23.59;27.76
54900;BME280;40801;41.924;25.562;2023-04-08T10:15:45;99867.06;;;22.78;29.21
54900;BME280;40801;41.924;25.562;2023-04-08T10:23:08;99855.72;;;24.82;27.29
54900;BME280;40801;41.924;25.562;2023-04-08T10:30:39;99840.91;;;25.64;26.48
54900;BME280;40801;41.924;25.562;2023-04-08T10:36:27;99826.94;;;27.30;24.73
54900;BME280;40801;41.924;25.562;2023-04-08T10:38:28;99828.91;;;27.30;23.84
54900;BME280;40801;41.924;25.562;2023-04-08T10:40:53;99830.72;;;26.92;24.26
54900;BME280;40801;41.924;25.562;2023-04-08T10:43:19;99830.16;;;26.41;24.45
54900;BME280;40801;41.924;25.562;2023-04-08T10:45:45;99828.25;;;25.99;24.87
54900;BME280;40801;41.924;25.562;2023-04-08T10:48:15;99828.66;;;26.05;24.32
54900;BME280;40801;41.924;25.562;2023-04-08T10:50:43;99829.00;;;25.07;24.70
54900;BME280;40801;41.924;25.562;2023-04-08T10:53:09;99822.66;;;24.92;24.96
54900;BME280;40801;41.924;25.562;2023-04-08T10:55:35;99813.44;;;24.46;25.45
54900;BME280;40801;41.924;25.562;2023-04-08T10:58:08;99815.34;;;24.31;26.15
54900;BME280;40801;41.924;25.562;2023-04-08T11:00:39;99806.41;;;24.59;26.32
54900;BME280;40801;41.924;25.562;2023-04-08T11:03:08;99802.44;;;24.56;25.96
54900;BME280;40801;41.924;25.562;2023-04-08T11:05:35;99799.69;;;24.56;26.17
54900;BME280;40801;41.924;25.562;2023-04-08T11:08:01;99806.41;;;24.62;26.25
54900;BME280;40801;41.924;25.562;2023-04-08T11:10:27;99800.03;;;24.44;25.39
54900;BME280;40801;41.924;25.562;2023-04-08T11:12:53;99796.63;;;23.99;25.79
54900;BME280;40801;41.924;25.562;2023-04-08T11:15:20;99781.19;;;23.33;26.84
54900;BME280;40801;41.924;25.562;2023-04-08T11:17:47;99782.00;;;23.40;26.73
54900;BME280;40801;41.924;25.562;2023-04-08T11:20:12;99790.16;;;23.26;27.37
54900;BME280;40801;41.924;25.562;2023-04-08T11:22:38;99786.19;;;23.68;27.75
54900;BME280;40801;41.924;25.562;2023-04-08T11:25:04;99773.34;;;24.84;26.63
54900;BME280;40801;41.924;25.562;2023-04-08T11:27:32;99787.19;;;26.12;26.01
54900;BME280;40801;41.924;25.562;2023-04-08T11:29:58;99779.97;;;26.46;25.35
54900;BME280;40801;41.924;25.562;2023-04-08T11:32:24;99772.56;;;26.95;24.43
54900;BME280;40801;41.924;25.562;2023-04-08T11:34:50;99775.44;;;27.85;23.68
54900;BME280;40801;41.924;25.562;2023-04-08T11:37:17;99778.31;;;28.12;22.81
54900;BME280;40801;41.924;25.562;2023-04-08T11:39:43;99766.28;;;27.88;23.71
54900;BME280;40801;41.924;25.562;2023-04-08T11:42:25;99762.81;;;28.14;22.85
54900;BME280;40801;41.924;25.562;2023-04-08T11:44:50;99764.97;;;27.99;22.21
54900;BME280;40801;41.924;25.562;2023-04-08T11:47:16;99763.97;;;27.83;22.91
54900;BME280;40801;41.924;25.562;2023-04-08T11:49:45;99754.94;;;27.30;22.64
54900;BME280;40801;41.924;25.562;2023-04-08T11:52:11;99746.00;;;27.08;23.29
54900;BME280;40801;41.924;25.562;2023-04-08T11:54:40;99746.41;;;26.41;23.49
54900;BME280;40801;41.924;25.562;2023-04-08T11:57:07;99741.34;;;26.14;24.28
54900;BME280;40801;41.924;25.562;2023-04-08T11:59:36;99751.28;;;25.94;24.96
54900;BME280;40801;41.924;25.562;2023-04-08T12:02:02;99752.16;;;25.30;25.74
54900;BME280;40801;41.924;25.562;2023-04-08T12:04:28;99752.91;;;25.42;25.94
54900;BME280;40801;41.924;25.562;2023-04-08T12:06:54;99745.47;;;25.17;25.68
54900;BME280;40801;41.924;25.562;2023-04-08T12:09:20;99750.19;;;25.31;25.27
54900;BME280;40801;41.924;25.562;2023-04-08T12:11:45;99737.16;;;25.24;25.37
54900;BME280;40801;41.924;25.562;2023-04-08T12:14:11;99741.47;;;24.90;25.58
54900;BME280;40801;41.924;25.562;2023-04-08T12:16:36;99745.50;;;24.02;25.96
54900;BME280;40801;41.924;25.562;2023-04-08T12:19:02;99738.88;;;23.55;26.65
54900;BME280;40801;41.924;25.562;2023-04-08T12:21:27;99735.19;;;23.37;26.75
54900;BME280;40801;41.924;25.562;2023-04-08T12:23:53;99729.81;;;23.03;27.28
54900;BME280;40801;41.924;25.562;2023-04-08T12:26:18;99742.06;;;23.09;26.78
54900;BME280;40801;41.924;25.562;2023-04-08T12:28:44;99738.63;;;23.20;27.01
54900;BME280;40801;41.924;25.562;2023-04-08T12:31:10;99741.34;;;23.67;26.11
54900;BME280;40801;41.924;25.562;2023-04-08T12:33:36;99733.84;;;23.64;26.11
54900;BME280;40801;41.924;25.562;2023-04-08T12:36:02;99723.13;;;23.48;25.95
54900;BME280;40801;41.924;25.562;2023-04-08T12:38:28;99725.97;;;23.63;26.02
54900;BME280;40801;41.924;25.562;2023-04-08T12:40:54;99727.25;;;23.79;25.66
54900;BME280;40801;41.924;25.562;2023-04-08T12:43:21;99719.91;;;24.01;25.73
54900;BME280;40801;41.924;25.562;2023-04-08T12:45:47;99712.19;;;24.35;25.52
54900;BME280;40801;41.924;25.562;2023-04-08T12:48:13;99721.50;;;24.09;25.41
54900;BME280;40801;41.924;25.562;2023-04-08T12:50:39;99722.50;;;23.73;25.58
54900;BME280;40801;41.924;25.562;2023-04-08T12:53:04;99721.44;;;23.99;25.73
54900;BME280;40801;41.924;25.562;2023-04-08T12:55:30;99713.78;;;24.51;25.12
54900;BME280;40801;41.924;25.562;2023-04-08T12:57:55;99708.78;;;25.02;24.45
54900;BME280;40801;41.924;25.562;2023-04-08T13:00:21;99709.13;;;25.44;23.64
54900;BME280;40801;41.924;25.562;2023-04-08T13:02:46;99704.38;;;25.80;23.88
54900;BME280;40801;41.924;25.562;2023-04-08T13:05:12;99698.13;;;25.29;24.07
54900;BME280;40801;41.924;25.562;2023-04-08T13:07:37;99693.75;;;24.68;23.86
54900;BME280;40801;41.924;25.562;2023-04-08T13:10:03;99696.31;;;24.07;24.51
54900;BME280;40801;41.924;25.562;2023-04-08T13:12:31;99697.34;;;23.78;24.48